Time;durP1;ratioP1;P1;durP2;ratioP2;P2;SDS_P1;SDS_P2;PMS_P1;PMS_P2;Temp;Humidity;BMP_temperature;BMP_pressure;BME280_temperature;BME280_humidity;BME280_pressure;Samples;Min_cycle;Max_cycle;Signal;HPM_P1;HPM_P2
2023/07/09 00:03:13;;;;;;;4.80;1.88;;;;;;;20.52;59.37;100161.19;10359134;28;20038;-57
2023/07/09 00:08:30;;;;;;;3.83;2.13;;;;;;;20.37;61.04;100165.38;10372373;28;20243;-58
2023/07/09 00:13:32;;;;;;;4.25;1.98;;;;;;;20.34;60.13;100173.63;10376835;28;20041;-57
2023/07/09 00:18:34;;;;;;;3.90;2.10;;;;;;;20.21;59.98;100175.78;10370683;28;20049;-58
2023/07/09 00:23:38;;;;;;;4.70;2.38;;;;;;;20.24;59.88;100178.13;10391983;28;20638;-57
2023/07/09 00:28:41;;;;;;;4.70;2.35;;;;;;;20.12;59.96;100185.47;10380995;28;20041;-58
2023/07/09 00:33:43;;;;;;;4.50;2.47;;;;;;;19.91;60.38;100192.00;10381535;28;20063;-58
2023/07/09 00:38:47;;;;;;;6.95;1.88;;;;;;;19.75;60.61;100199.66;10382784;28;20133;-57
2023/07/09 00:43:52;;;;;;;4.47;2.38;;;;;;;19.75;60.85;100194.34;10379391;28;20488;-57
2023/07/09 00:49:07;;;;;;;3.05;1.80;;;;;;;19.34;61.82;100203.50;10364810;28;20136;-57
2023/07/09 00:54:21;;;;;;;4.18;1.98;;;;;;;19.44;62.06;100205.16;10381484;28;20061;-58
2023/07/09 00:59:28;;;;;;;4.78;2.55;;;;;;;19.55;61.75;100204.19;10379556;28;20057;-57
2023/07/09 01:04:30;;;;;;;4.05;2.03;;;;;;;19.54;61.37;100206.97;10377667;28;20045;-58
2023/07/09 01:09:35;;;;;;;5.43;2.10;;;;;;;19.59;60.98;100204.72;10379807;28;20139;-58
2023/07/09 01:14:38;;;;;;;5.32;2.95;;;;;;;19.56;61.25;100197.91;10379307;28;20486;-58
2023/07/09 01:19:43;;;;;;;3.95;2.20;;;;;;;19.49;61.13;100204.75;10380358;28;20140;-58
2023/07/09 01:25:05;;;;;;;5.78;2.28;;;;;;;19.38;61.60;100207.53;10384582;28;20057;-58
2023/07/09 01:30:16;;;;;;;5.15;2.35;;;;;;;18.98;61.95;100212.13;10378432;28;20492;-58
2023/07/09 01:35:21;;;;;;;4.30;1.90;;;;;;;19.09;61.16;100209.38;10385707;28;20079;-57
2023/07/09 01:40:26;;;;;;;4.95;1.85;;;;;;;19.18;60.92;100214.69;10386565;28;20056;-57
2023/07/09 01:45:36;;;;;;;5.95;2.20;;;;;;;19.21;61.24;100210.91;10385591;28;20045;-57
2023/07/09 01:50:41;;;;;;;5.07;2.33;;;;;;;19.14;61.08;100213.28;10387701;28;20965;-56
2023/07/09 01:55:44;;;;;;;7.03;1.90;;;;;;;18.78;61.46;100219.22;10384284;28;20622;-57
2023/07/09 02:00:46;;;;;;;3.40;1.67;;;;;;;18.42;62.39;100225.94;10377753;28;20088;-57
2023/07/09 02:05:48;;;;;;;2.80;1.63;;;;;;;18.66;62.14;100222.94;10383735;28;20053;-56
2023/07/09 02:10:51;;;;;;;2.33;1.38;;;;;;;18.79;62.08;100220.88;10392471;28;20131;-58
2023/07/09 02:15:53;;;;;;;3.15;1.60;;;;;;;18.70;61.52;100224.34;10392857;28;20069;-58
2023/07/09 02:20:55;;;;;;;3.90;1.63;;;;;;;18.74;61.62;100224.91;10383559;28;20053;-57
2023/07/09 02:25:58;;;;;;;3.00;1.67;;;;;;;18.79;61.69;100220.06;10385915;28;20049;-57
2023/07/09 02:31:00;;;;;;;5.15;2.00;;;;;;;18.77;61.68;100222.81;10388837;28;20045;-58
2023/07/09 02:36:02;;;;;;;3.25;1.80;;;;;;;18.75;61.28;100221.31;10382972;28;20045;-56
2023/07/09 02:41:05;;;;;;;2.08;1.30;;;;;;;18.81;61.47;100220.75;10390491;28;20037;-57
2023/07/09 02:46:07;;;;;;;3.13;1.50;;;;;;;18.75;61.25;100230.06;10401900;28;20095;-57
2023/07/09 02:51:09;;;;;;;2.58;1.60;;;;;;;18.65;61.56;100231.84;10357650;28;20217;-57
2023/07/09 02:56:11;;;;;;;3.25;1.55;;;;;;;18.52;61.61;100242.69;10403784;28;20520;-57
2023/07/09 03:01:13;;;;;;;3.00;1.58;;;;;;;18.48;61.63;100237.81;10386484;28;20065;-57
2023/07/09 03:06:16;;;;;;;3.92;1.70;;;;;;;18.48;61.37;100245.75;10370986;28;20155;-57
2023/07/09 03:11:20;;;;;;;5.47;1.70;;;;;;;18.42;61.65;100244.47;10381166;28;20057;-57
2023/07/09 03:16:22;;;;;;;3.35;1.90;;;;;;;18.36;61.75;100249.50;10382504;28;20528;-57
2023/07/09 03:21:26;;;;;;;2.72;1.48;;;;;;;18.25;61.77;100245.13;10382448;28;20405;-57
2023/07/09 03:26:28;;;;;;;2.67;1.50;;;;;;;18.09;61.77;100249.19;10387585;28;20057;-57
2023/07/09 03:31:32;;;;;;;3.72;1.70;;;;;;;18.19;61.91;100253.59;10386107;28;20508;-56
2023/07/09 03:36:37;;;;;;;3.60;1.80;;;;;;;18.25;61.79;100260.16;10384397;28;20933;-56
2023/07/09 03:41:39;;;;;;;4.10;1.90;;;;;;;18.22;61.91;100257.78;10385781;28;20049;-57
2023/07/09 03:46:41;;;;;;;4.57;1.92;;;;;;;18.22;61.51;100265.72;10384569;28;20045;-56
2023/07/09 03:51:43;;;;;;;2.78;1.60;;;;;;;18.09;61.69;100265.06;10378485;28;20688;-56
2023/07/09 03:56:45;;;;;;;2.90;1.60;;;;;;;18.04;61.83;100270.75;10378979;28;20148;-57
2023/07/09 04:01:48;;;;;;;2.95;1.70;;;;;;;18.10;62.01;100267.56;10381425;28;20063;-57
2023/07/09 04:06:50;;;;;;;2.50;1.58;;;;;;;18.18;61.77;100277.53;10378464;28;20068;-57
2023/07/09 04:11:52;;;;;;;3.42;1.73;;;;;;;18.40;61.58;100277.38;10383355;28;20053;-57
2023/07/09 04:16:54;;;;;;;3.17;1.60;;;;;;;18.62;61.06;100283.31;10383269;28;20497;-57
2023/07/09 04:21:56;;;;;;;3.17;1.70;;;;;;;18.71;60.48;100286.97;10381805;28;20056;-57
2023/07/09 04:27:02;;;;;;;2.88;1.70;;;;;;;19.49;59.57;100286.97;10381679;28;20132;-57
2023/07/09 04:32:06;;;;;;;4.03;1.65;;;;;;;20.01;58.34;100293.69;10381074;28;20065;-57
2023/07/09 04:37:12;;;;;;;2.08;1.38;;;;;;;19.69;58.96;100290.47;10383449;28;20046;-58
2023/07/09 04:42:16;;;;;;;2.65;1.60;;;;;;;20.23;57.85;100280.88;10382790;28;20527;-57
2023/07/09 04:47:18;;;;;;;2.30;1.27;;;;;;;22.49;54.40;100270.66;10379989;28;20122;-57
2023/07/09 04:52:22;;;;;;;2.08;1.33;;;;;;;23.94;51.09;100278.16;10381684;28;20502;-57
2023/07/09 04:57:25;;;;;;;2.90;1.50;;;;;;;24.87;49.42;100267.56;10388927;28;20893;-59
2023/07/09 05:02:27;;;;;;;2.92;1.40;;;;;;;26.04;47.38;100264.56;10387854;28;20049;-58
2023/07/09 05:07:32;;;;;;;3.10;1.73;;;;;;;27.05;45.26;100255.63;10385821;28;20045;-58
2023/07/09 05:12:34;;;;;;;4.80;1.30;;;;;;;27.83;43.56;100249.41;10386040;28;20045;-58
2023/07/09 05:17:36;;;;;;;2.42;1.38;;;;;;;28.40;42.44;100246.50;10386709;28;20041;-58
2023/07/09 05:22:38;;;;;;;1.65;1.13;;;;;;;29.00;41.45;100252.78;10388127;28;20156;-58
2023/07/09 05:27:40;;;;;;;3.17;1.30;;;;;;;29.50;40.31;100245.25;10387835;28;20045;-58
2023/07/09 05:32:42;;;;;;;2.80;1.45;;;;;;;29.70;39.39;100243.38;10388430;28;20088;-58
2023/07/09 05:37:44;;;;;;;3.15;1.35;;;;;;;28.05;41.25;100248.31;10383592;28;20107;-58
2023/07/09 05:42:47;;;;;;;1.92;1.20;;;;;;;26.63;43.33;100258.19;10386478;28;20083;-58
2023/07/09 05:47:49;;;;;;;2.53;1.40;;;;;;;25.37;45.44;100261.75;10387421;28;20143;-57
2023/07/09 05:52:51;;;;;;;2.22;1.23;;;;;;;24.46;47.13;100259.84;10386950;28;20060;-58
2023/07/09 05:57:53;;;;;;;3.72;1.60;;;;;;;24.20;47.84;100263.63;10387112;28;20136;-57
2023/07/09 06:02:56;;;;;;;4.45;1.83;;;;;;;24.00;48.69;100270.28;10387337;28;20140;-58
2023/07/09 06:07:58;;;;;;;3.35;1.48;;;;;;;24.04;48.97;100274.28;10386597;28;20099;-58
2023/07/09 06:13:00;;;;;;;2.78;1.75;;;;;;;23.89;49.59;100273.31;10381727;28;20513;-58
2023/07/09 06:18:03;;;;;;;4.43;1.90;;;;;;;23.94;49.80;100278.97;10375361;28;20584;-57
2023/07/09 06:23:05;;;;;;;3.17;1.65;;;;;;;23.91;50.28;100281.16;10368927;28;20041;-57
2023/07/09 06:28:07;;;;;;;3.38;1.73;;;;;;;23.79;50.46;100272.66;10381725;28;20045;-57
2023/07/09 06:33:11;;;;;;;3.28;1.63;;;;;;;23.70;50.48;100272.81;10378523;28;20409;-57
2023/07/09 06:38:13;;;;;;;3.55;1.80;;;;;;;24.18;49.83;100267.47;10400533;28;20084;-58
2023/07/09 06:43:17;;;;;;;3.45;2.00;;;;;;;24.39;49.70;100267.72;10383564;28;20541;-57
2023/07/09 06:48:20;;;;;;;3.47;1.73;;;;;;;24.62;49.06;100268.66;10383850;28;20046;-57
2023/07/09 06:53:22;;;;;;;3.30;1.85;;;;;;;24.57;48.66;100272.84;10384125;28;20059;-57
2023/07/09 06:58:27;;;;;;;4.07;1.70;;;;;;;24.54;48.94;100266.00;10386060;28;20069;-57
2023/07/09 07:03:30;;;;;;;4.75;1.60;;;;;;;24.92;48.00;100272.38;10383169;28;20926;-58
2023/07/09 07:08:33;;;;;;;3.72;1.80;;;;;;;25.75;46.77;100263.44;10385535;28;20061;-58
2023/07/09 07:13:37;;;;;;;4.10;2.08;;;;;;;26.19;45.56;100257.34;10383188;28;20050;-57
2023/07/09 07:18:39;;;;;;;7.15;2.55;;;;;;;26.96;45.26;100246.00;10383087;28;20801;-57
2023/07/09 07:23:41;;;;;;;3.92;1.80;;;;;;;28.73;43.46;100242.91;10382817;28;20037;-58
2023/07/09 07:28:43;;;;;;;4.85;1.83;;;;;;;29.79;41.27;100234.84;10378932;28;20066;-58
2023/07/09 07:33:45;;;;;;;3.92;1.90;;;;;;;30.60;39.57;100225.38;10374114;28;20051;-58
2023/07/09 07:38:47;;;;;;;3.55;1.48;;;;;;;31.54;38.53;100230.09;10384661;28;20049;-58
2023/07/09 07:43:49;;;;;;;4.53;1.95;;;;;;;32.61;36.40;100217.78;10366636;28;20037;-58
2023/07/09 07:48:51;;;;;;;4.28;1.77;;;;;;;32.78;35.38;100217.97;10359324;28;20045;-59
2023/07/09 07:53:53;;;;;;;3.20;1.60;;;;;;;33.00;35.61;100221.88;10376256;28;20053;-59
2023/07/09 07:58:55;;;;;;;2.97;1.52;;;;;;;33.57;34.42;100213.03;10364983;28;20050;-58
2023/07/09 08:03:57;;;;;;;2.80;1.60;;;;;;;33.67;32.98;100201.63;10360923;28;20164;-58
2023/07/09 08:09:00;;;;;;;3.72;1.90;;;;;;;33.61;32.82;100199.88;10360632;28;20045;-59
2023/07/09 08:14:02;;;;;;;3.60;1.73;;;;;;;34.10;31.92;100190.44;10361040;28;20046;-58
2023/07/09 08:19:04;;;;;;;5.13;1.88;;;;;;;34.43;32.01;100193.31;10362636;28;21237;-58
2023/07/09 08:24:06;;;;;;;4.07;1.67;;;;;;;34.61;31.41;100193.19;10356575;28;20045;-58
2023/07/09 08:29:08;;;;;;;5.55;1.70;;;;;;;34.79;31.15;100192.97;10358553;28;20053;-59
2023/07/09 08:34:10;;;;;;;3.35;2.00;;;;;;;34.44;31.08;100192.28;10358510;28;20053;-58
2023/07/09 08:39:15;;;;;;;3.33;1.63;;;;;;;34.49;30.70;100192.34;10365544;28;20144;-58
2023/07/09 08:44:25;;;;;;;3.35;1.58;;;;;;;34.13;29.75;100182.63;10375600;28;20099;-58
2023/07/09 08:49:43;;;;;;;3.42;1.60;;;;;;;33.25;30.48;100186.47;10382139;28;20057;-58
2023/07/09 08:54:49;;;;;;;3.38;1.77;;;;;;;33.06;31.16;100183.00;10378615;28;20363;-58
2023/07/09 09:00:02;;;;;;;2.80;1.50;;;;;;;33.42;30.01;100184.72;10382366;28;20157;-58
2023/07/09 09:05:05;;;;;;;6.78;1.80;;;;;;;33.31;30.96;100178.19;10384748;28;20045;-58
2023/07/09 09:10:17;;;;;;;4.07;2.03;;;;;;;33.61;30.00;100168.13;10383864;28;20056;-58
2023/07/09 09:15:20;;;;;;;3.67;1.60;;;;;;;33.93;30.53;100173.19;10381479;28;20320;-58
2023/07/09 09:20:23;;;;;;;3.10;1.52;;;;;;;34.30;29.90;100164.53;10378292;28;20055;-58
2023/07/09 09:25:29;;;;;;;3.70;1.70;;;;;;;34.55;28.50;100161.53;10381226;28;20106;-59
2023/07/09 09:30:31;;;;;;;3.50;1.50;;;;;;;34.31;29.66;100159.91;10373186;28;20052;-60
2023/07/09 09:35:39;;;;;;;3.92;1.88;;;;;;;34.63;28.72;100153.81;10371245;28;20637;-59
2023/07/09 09:40:41;;;;;;;5.07;1.60;;;;;;;34.59;28.78;100149.94;10362490;28;20128;-59
2023/07/09 09:45:45;;;;;;;3.08;1.25;;;;;;;34.88;28.00;100152.66;10373215;28;20143;-59
2023/07/09 09:50:48;;;;;;;3.33;1.58;;;;;;;35.15;27.24;100149.06;10383725;28;20052;-60
2023/07/09 09:55:54;;;;;;;4.95;1.45;;;;;;;35.37;26.18;100154.63;10381546;28;20049;-60
2023/07/09 10:01:00;;;;;;;3.17;1.60;;;;;;;35.64;26.50;100141.16;10384726;28;20729;-60
2023/07/09 10:06:17;;;;;;;3.50;1.77;;;;;;;35.50;25.89;100139.88;10385170;28;20045;-60
2023/07/09 10:11:41;;;;;;;3.10;1.42;;;;;;;35.59;26.04;100130.22;10384234;28;20037;-60
2023/07/09 10:16:48;;;;;;;4.45;2.03;;;;;;;35.68;26.20;100128.69;10383624;28;20219;-60
2023/07/09 10:21:58;;;;;;;3.35;1.45;;;;;;;35.70;26.29;100116.50;10387262;28;20061;-60
2023/07/09 10:27:14;;;;;;;3.17;1.60;;;;;;;35.71;25.64;100103.72;10389595;28;20045;-60
2023/07/09 10:32:53;;;;;;;2.50;1.50;;;;;;;35.66;25.66;100092.75;10389749;28;20390;-60
2023/07/09 10:38:02;;;;;;;3.78;1.67;;;;;;;35.50;26.35;100099.06;10388002;28;20053;-60
2023/07/09 10:43:06;;;;;;;2.97;1.52;;;;;;;35.82;26.10;100089.19;10380428;28;20132;-59
2023/07/09 10:48:17;;;;;;;4.05;1.75;;;;;;;35.68;25.39;100085.16;10387408;28;20418;-59
2023/07/09 10:53:42;;;;;;;3.20;1.33;;;;;;;35.61;24.36;100077.19;10402571;28;20858;-60
2023/07/09 10:59:20;;;;;;;2.55;1.50;;;;;;;34.88;24.95;100082.00;10388029;28;20052;-60
2023/07/09 11:04:42;;;;;;;3.25;1.38;;;;;;;34.85;25.41;100086.00;10388454;28;20144;-60
2023/07/09 11:09:47;;;;;;;2.92;1.65;;;;;;;34.97;25.50;100073.19;10386290;28;20137;-59
2023/07/09 11:14:58;;;;;;;2.50;1.30;;;;;;;35.15;25.42;100069.41;10387346;28;20049;-60
2023/07/09 11:20:15;;;;;;;3.85;1.58;;;;;;;35.36;24.73;100065.97;10386278;28;20049;-60
2023/07/09 11:25:47;;;;;;;3.47;1.60;;;;;;;35.23;24.99;100067.09;10388579;28;20068;-58
2023/07/09 11:30:52;;;;;;;3.47;1.55;;;;;;;35.31;24.44;100061.22;10386747;28;20073;-60
2023/07/09 11:36:09;;;;;;;3.58;1.90;;;;;;;35.17;24.12;100051.78;10386929;28;20064;-60
2023/07/09 11:41:47;;;;;;;3.00;1.70;;;;;;;35.20;23.70;100047.75;10387441;28;20060;-59
2023/07/09 11:46:54;;;;;;;2.63;1.30;;;;;;;35.19;22.78;100046.91;10337036;28;20053;-60
2023/07/09 11:52:02;;;;;;;3.72;1.30;;;;;;;35.34;23.58;100041.69;10387068;28;21188;-60
2023/07/09 11:57:11;;;;;;;3.08;1.30;;;;;;;35.44;22.78;100026.63;10386813;28;20053;-59
2023/07/09 12:02:21;;;;;;;4.25;1.73;;;;;;;35.38;22.56;100025.72;10386464;28;20141;-60
2023/07/09 12:07:24;;;;;;;2.80;1.20;;;;;;;35.70;23.22;100025.88;10386323;28;20068;-59
2023/07/09 12:12:28;;;;;;;4.60;1.80;;;;;;;35.81;22.50;100014.91;10382192;28;20049;-60
2023/07/09 12:17:32;;;;;;;2.90;1.50;;;;;;;35.92;22.22;100004.94;10383932;28;20070;-60
2023/07/09 12:22:34;;;;;;;3.00;1.45;;;;;;;35.96;22.32;100006.06;10383599;28;20778;-60
2023/07/09 12:27:37;;;;;;;3.97;1.75;;;;;;;35.75;22.25;99996.81;10385184;28;20059;-60
2023/07/09 12:32:46;;;;;;;2.95;1.40;;;;;;;36.12;21.83;100000.53;10384599;28;20041;-62
2023/07/09 12:37:52;;;;;;;3.63;1.50;;;;;;;36.22;22.21;99994.38;10385061;28;21055;-60
2023/07/09 12:42:57;;;;;;;3.60;1.45;;;;;;;36.25;22.39;99988.44;10384787;28;20560;-60
2023/07/09 12:47:59;;;;;;;3.95;1.52;;;;;;;36.32;22.26;99988.25;10400134;28;20510;-60
2023/07/09 12:53:12;;;;;;;5.70;1.60;;;;;;;36.24;22.11;99983.25;10383963;28;20456;-60
2023/07/09 12:58:20;;;;;;;3.58;1.42;;;;;;;36.37;21.02;99985.53;10381759;28;20095;-59
2023/07/09 13:03:29;;;;;;;3.35;1.63;;;;;;;36.36;21.21;99986.63;10383680;28;20069;-60
2023/07/09 13:08:43;;;;;;;3.08;1.58;;;;;;;36.45;21.29;99975.00;10382743;28;20042;-60
2023/07/09 13:14:01;;;;;;;3.90;1.50;;;;;;;36.52;20.60;99969.34;10385968;28;20094;-60
2023/07/09 13:19:03;;;;;;;4.10;1.45;;;;;;;36.68;21.33;99966.50;10390058;28;20414;-59
2023/07/09 13:24:25;;;;;;;2.53;1.33;;;;;;;36.63;19.79;99960.16;10390484;28;20505;-60
2023/07/09 13:29:27;;;;;;;4.22;1.60;;;;;;;36.65;20.97;99955.28;10392860;28;20046;-60
2023/07/09 13:34:35;;;;;;;2.25;1.20;;;;;;;36.54;20.87;99959.84;10391211;28;20075;-60
2023/07/09 13:39:37;;;;;;;2.85;1.40;;;;;;;36.67;21.24;99956.69;10392072;28;20217;-60
2023/07/09 13:44:41;;;;;;;3.88;1.40;;;;;;;36.67;21.21;99947.72;10392513;28;20144;-60
2023/07/09 13:49:45;;;;;;;4.03;1.63;;;;;;;36.59;20.97;99948.13;10392310;28;20133;-60
2023/07/09 13:54:47;;;;;;;4.25;1.70;;;;;;;36.40;21.36;99942.28;10392284;28;20053;-59
2023/07/09 13:59:49;;;;;;;4.32;1.60;;;;;;;36.63;20.69;99936.44;10391032;28;20464;-60
2023/07/09 14:04:52;;;;;;;3.17;1.63;;;;;;;36.70;20.08;99936.25;10388719;28;20079;-60
2023/07/09 14:09:54;;;;;;;4.18;1.40;;;;;;;36.58;20.59;99939.16;10388896;28;20115;-59
2023/07/09 14:14:59;;;;;;;3.63;1.52;;;;;;;36.37;19.95;99931.06;10389335;28;20055;-60
2023/07/09 14:20:02;;;;;;;5.32;2.33;;;;;;;36.17;20.80;99937.97;10388116;28;20049;-59
2023/07/09 14:25:05;;;;;;;3.65;1.60;;;;;;;36.07;21.08;99926.16;10388047;28;20053;-59
2023/07/09 14:30:13;;;;;;;3.40;1.35;;;;;;;36.10;21.32;99928.34;10389883;28;20219;-59
2023/07/09 14:35:23;;;;;;;3.47;1.45;;;;;;;36.24;21.00;99926.91;10389616;28;20104;-60
2023/07/09 14:40:25;;;;;;;4.53;1.70;;;;;;;35.94;21.13;99932.00;10388718;28;20127;-60
2023/07/09 14:45:31;;;;;;;3.70;1.48;;;;;;;36.13;21.50;99919.66;10404213;28;20056;-60
2023/07/09 14:50:33;;;;;;;2.70;1.50;;;;;;;36.28;21.34;99917.13;10389113;28;20049;-60
2023/07/09 14:55:35;;;;;;;2.65;1.45;;;;;;;36.10;21.58;99910.13;10388787;28;20918;-60
2023/07/09 15:00:40;;;;;;;3.92;1.33;;;;;;;36.12;21.02;99902.50;10386658;28;20060;-59
2023/07/09 15:05:42;;;;;;;3.03;1.40;;;;;;;35.82;21.25;99906.84;10387434;28;20140;-60
2023/07/09 15:10:46;;;;;;;4.18;1.50;;;;;;;35.82;20.99;99920.44;10385126;28;20236;-59
2023/07/09 15:15:48;;;;;;;4.65;1.48;;;;;;;35.97;20.98;99932.31;10385674;28;20053;-60
2023/07/09 15:20:56;;;;;;;3.63;1.63;;;;;;;35.72;20.36;99923.84;10388352;28;20049;-59
2023/07/09 15:25:58;;;;;;;3.60;1.60;;;;;;;35.56;21.32;99934.81;10387964;28;20135;-60
2023/07/09 15:31:00;;;;;;;2.58;1.33;;;;;;;35.34;22.00;99951.16;10388092;28;20065;-60
2023/07/09 15:36:10;;;;;;;3.70;1.40;;;;;;;35.01;21.58;99981.94;10387210;28;20052;-59
2023/07/09 15:41:14;;;;;;;5.85;1.50;;;;;;;33.52;24.49;100049.38;10386338;28;20168;-59
2023/07/09 15:46:20;;;;;;;3.00;1.15;;;;;;;32.32;26.83;100063.38;10385700;28;20045;-59
2023/07/09 15:51:22;;;;;;;4.75;1.98;;;;;;;31.82;27.21;100090.59;10382229;28;20045;-59
2023/07/09 15:56:29;;;;;;;2.95;1.30;;;;;;;31.36;27.55;100084.84;10383383;28;20052;-59
2023/07/09 16:01:31;;;;;;;4.35;1.58;;;;;;;30.88;28.50;100105.38;10380795;28;20049;-59
2023/07/09 16:06:35;;;;;;;5.65;1.50;;;;;;;30.44;29.12;100112.47;10384576;28;20620;-59
2023/07/09 16:11:45;;;;;;;3.78;1.63;;;;;;;30.00;30.04;100128.63;10380244;28;20048;-59
2023/07/09 16:16:50;;;;;;;7.38;1.35;;;;;;;29.50;31.07;100137.44;10378018;28;20058;-58
2023/07/09 16:21:55;;;;;;;4.53;1.65;;;;;;;29.08;32.30;100128.69;10379614;28;20056;-59
2023/07/09 16:26:59;;;;;;;2.30;1.23;;;;;;;28.84;32.16;100126.59;10373836;28;20063;-58
2023/07/09 16:32:02;;;;;;;10.07;1.40;;;;;;;28.71;33.55;100137.31;10382494;28;20049;-59
2023/07/09 16:37:16;;;;;;;2.55;1.25;;;;;;;28.22;34.25;100140.22;10380542;28;20052;-59
2023/07/09 16:42:18;;;;;;;4.18;1.17;;;;;;;27.70;35.13;100139.91;10383969;28;20057;-59
2023/07/09 16:47:20;;;;;;;2.22;1.33;;;;;;;27.17;36.51;100153.94;10383108;28;20060;-59
2023/07/09 16:52:25;;;;;;;2.65;1.50;;;;;;;26.89;37.87;100110.91;10390749;28;20183;-59
2023/07/09 16:57:31;;;;;;;2.08;1.20;;;;;;;26.77;39.08;100092.84;10388098;28;20072;-58
2023/07/09 17:02:34;;;;;;;6.10;1.75;;;;;;;26.09;40.27;100083.38;10385577;28;20497;-58
2023/07/09 17:07:36;;;;;;;2.90;1.48;;;;;;;26.02;40.29;100103.09;10391508;28;20053;-58
2023/07/09 17:12:39;;;;;;;1.75;1.08;;;;;;;26.15;40.94;100093.34;10377250;28;20072;-58
2023/07/09 17:17:41;;;;;;;2.97;1.75;;;;;;;25.95;40.98;100078.84;10385824;28;20293;-58
2023/07/09 17:22:43;;;;;;;1.85;1.30;;;;;;;26.12;41.33;100042.78;10387869;28;20336;-58
2023/07/09 17:27:45;;;;;;;2.22;1.20;;;;;;;26.36;41.42;100020.16;10391022;28;20583;-58
2023/07/09 17:32:47;;;;;;;2.72;1.50;;;;;;;26.56;40.90;100019.38;10392271;28;20076;-58
2023/07/09 17:37:54;;;;;;;3.33;1.40;;;;;;;26.56;41.36;100022.06;10390714;28;20060;-58
2023/07/09 17:42:57;;;;;;;2.42;1.33;;;;;;;26.79;40.93;100003.06;10392171;28;20722;-58
2023/07/09 17:47:59;;;;;;;2.13;1.35;;;;;;;26.94;40.83;100017.22;10391554;28;20053;-58
2023/07/09 17:53:01;;;;;;;2.35;1.20;;;;;;;27.01;40.79;100009.22;10391306;28;20409;-58
2023/07/09 17:58:03;;;;;;;2.90;1.20;;;;;;;27.06;40.85;100010.28;10382932;28;20049;-58
2023/07/09 18:03:09;;;;;;;1.73;1.08;;;;;;;27.17;40.87;100008.94;10385100;28;20505;-59
2023/07/09 18:08:12;;;;;;;2.35;1.30;;;;;;;27.11;40.60;100021.28;10388237;28;20128;-58
2023/07/09 18:13:17;;;;;;;1.52;1.08;;;;;;;27.12;40.74;100016.72;10380467;28;20458;-59
2023/07/09 18:18:19;;;;;;;2.47;1.45;;;;;;;27.02;40.94;100019.75;10380584;28;20423;-58
2023/07/09 18:23:24;;;;;;;2.38;1.20;;;;;;;27.11;40.99;100012.38;10382158;28;20659;-58
2023/07/09 18:28:30;;;;;;;3.65;1.58;;;;;;;26.93;41.72;100014.72;10382954;28;20061;-58
2023/07/09 18:33:32;;;;;;;4.00;1.38;;;;;;;26.87;41.31;100015.50;10415155;28;20497;-59
2023/07/09 18:38:34;;;;;;;3.60;1.25;;;;;;;26.68;41.63;100008.94;10424046;28;20167;-59
2023/07/09 18:43:36;;;;;;;2.90;1.25;;;;;;;26.44;42.04;100015.50;10428725;28;20503;-58
2023/07/09 18:48:39;;;;;;;2.33;1.20;;;;;;;26.35;42.30;100015.81;10410988;28;20593;-58
2023/07/09 18:53:42;;;;;;;1.95;1.30;;;;;;;26.32;42.52;100006.28;10428854;28;20053;-58
2023/07/09 18:58:44;;;;;;;2.42;1.30;;;;;;;26.21;42.59;100008.66;10425884;28;20135;-59
2023/07/09 19:03:46;;;;;;;2.22;1.35;;;;;;;26.28;42.67;100012.25;10427992;28;20049;-59
2023/07/09 19:08:49;;;;;;;1.58;1.17;;;;;;;26.22;42.86;100005.78;10430104;28;20165;-58
2023/07/09 19:13:50;;;;;;;4.07;1.52;;;;;;;26.13;43.19;100009.63;10428901;28;20133;-58
2023/07/09 19:18:53;;;;;;;2.50;1.30;;;;;;;26.08;43.14;100014.69;10426575;28;20056;-51
2023/07/09 19:23:55;;;;;;;3.25;1.20;;;;;;;26.00;43.45;100017.50;10427474;28;20099;-51
2023/07/09 19:28:57;;;;;;;4.10;1.33;;;;;;;25.78;43.88;100021.94;10441674;28;20487;-50
2023/07/09 19:33:59;;;;;;;2.15;1.08;;;;;;;25.73;44.17;100010.94;10428923;28;20132;-52
2023/07/09 19:39:01;;;;;;;2.20;1.20;;;;;;;25.97;43.77;100023.25;10429297;28;20056;-53
2023/07/09 19:44:03;;;;;;;3.00;1.60;;;;;;;25.87;44.11;100022.69;10428108;28;20041;-48
2023/07/09 19:49:10;;;;;;;1.95;1.30;;;;;;;25.71;44.86;100034.41;10426472;28;20143;-60
2023/07/09 19:54:15;;;;;;;2.55;1.30;;;;;;;25.53;44.70;100033.16;10426675;28;21390;-61
2023/07/09 19:59:18;;;;;;;3.00;1.50;;;;;;;25.33;45.02;100043.53;10424519;28;20611;-61
2023/07/09 20:04:20;;;;;;;6.30;2.38;;;;;;;25.16;45.55;100044.72;10424905;28;20056;-61
2023/07/09 20:09:22;;;;;;;2.50;1.42;;;;;;;25.01;45.75;100041.19;10425598;28;20175;-61
2023/07/09 20:14:25;;;;;;;2.17;1.27;;;;;;;24.99;46.21;100043.22;10421791;28;20080;-61
2023/07/09 20:19:27;;;;;;;4.97;1.63;;;;;;;24.93;46.20;100050.13;10423710;28;20386;-61
2023/07/09 20:24:29;;;;;;;3.95;1.33;;;;;;;24.58;46.75;100049.88;10423343;28;20060;-61
2023/07/09 20:29:31;;;;;;;3.45;1.33;;;;;;;24.42;47.34;100056.19;10425182;28;20045;-61
2023/07/09 20:34:33;;;;;;;3.00;1.52;;;;;;;24.38;47.56;100067.38;10425246;28;20056;-61
2023/07/09 20:39:35;;;;;;;2.90;1.23;;;;;;;24.28;47.81;100071.13;10426055;28;20072;-62
2023/07/09 20:44:39;;;;;;;1.52;1.13;;;;;;;24.25;48.20;100082.16;10422620;28;20413;-61
2023/07/09 20:49:42;;;;;;;4.07;1.30;;;;;;;24.29;48.20;100077.28;10424190;28;20052;-61
2023/07/09 20:54:44;;;;;;;3.47;1.52;;;;;;;24.16;48.22;100075.19;10425810;28;20056;-61
2023/07/09 20:59:46;;;;;;;3.30;1.55;;;;;;;23.81;48.74;100077.50;10423663;28;20079;-61
2023/07/09 21:04:49;;;;;;;4.18;1.75;;;;;;;23.66;49.35;100089.88;10436813;28;20045;-61
2023/07/09 21:09:51;;;;;;;2.65;1.50;;;;;;;23.52;49.91;100091.44;10421591;28;20053;-61
2023/07/09 21:14:53;;;;;;;4.93;1.80;;;;;;;23.58;50.14;100106.78;10426024;28;20508;-61
2023/07/09 21:19:56;;;;;;;2.25;1.60;;;;;;;23.57;49.98;100122.97;10420497;28;20512;-61
2023/07/09 21:25:14;;;;;;;2.83;1.33;;;;;;;23.54;50.85;100115.28;10422139;28;20324;-61
2023/07/09 21:30:18;;;;;;;1.95;1.25;;;;;;;23.67;50.06;100129.81;10424578;28;20052;-61
2023/07/09 21:35:24;;;;;;;3.75;1.50;;;;;;;23.64;50.66;100127.44;10427570;28;20045;-61
2023/07/09 21:40:32;;;;;;;2.05;1.40;;;;;;;23.69;50.50;100137.63;10432006;28;20867;-61
2023/07/09 21:45:38;;;;;;;6.13;1.80;;;;;;;23.66;50.58;100132.63;10429897;28;20114;-61
2023/07/09 21:50:40;;;;;;;2.63;1.40;;;;;;;23.71;50.61;100141.81;10431790;28;20072;-61
2023/07/09 21:55:42;;;;;;;2.08;1.30;;;;;;;23.69;50.83;100135.81;10429089;28;20136;-61
2023/07/09 22:00:46;;;;;;;2.30;1.13;;;;;;;23.61;50.75;100133.16;10431665;28;20071;-61
2023/07/09 22:05:56;;;;;;;3.58;1.63;;;;;;;23.64;50.70;100151.50;10428956;28;20065;-61
2023/07/09 22:10:58;;;;;;;2.72;1.50;;;;;;;23.61;51.17;100157.19;10428660;28;20091;-61
2023/07/09 22:16:01;;;;;;;2.83;1.40;;;;;;;23.52;51.23;100162.69;10424190;28;20162;-62
2023/07/09 22:21:04;;;;;;;4.25;1.35;;;;;;;23.37;51.44;100165.19;10408333;28;20057;-61
2023/07/09 22:26:06;;;;;;;5.43;1.88;;;;;;;23.31;51.54;100155.16;10415233;28;20068;-61
2023/07/09 22:31:11;;;;;;;3.92;1.63;;;;;;;23.14;52.50;100158.84;10420382;28;20455;-61
2023/07/09 22:36:13;;;;;;;3.38;1.42;;;;;;;23.04;52.32;100161.69;10420556;28;20063;-61
2023/07/09 22:41:15;;;;;;;1.98;1.38;;;;;;;22.89;53.44;100159.81;10416271;28;20041;-61
2023/07/09 22:46:18;;;;;;;4.00;1.75;;;;;;;23.02;52.80;100155.69;10415171;28;20036;-61
2023/07/09 22:51:20;;;;;;;2.80;1.50;;;;;;;23.17;52.38;100150.50;10417980;28;20041;-61
2023/07/09 22:56:22;;;;;;;3.83;1.92;;;;;;;23.13;52.57;100150.00;10416471;28;20041;-61
2023/07/09 23:01:25;;;;;;;3.22;1.60;;;;;;;23.06;52.79;100151.69;10415397;28;20621;-61
2023/07/09 23:06:28;;;;;;;4.53;1.70;;;;;;;23.06;52.94;100156.19;10417766;28;20504;-61
2023/07/09 23:11:40;;;;;;;3.17;1.40;;;;;;;22.92;54.11;100160.34;10409406;28;20047;-62
2023/07/09 23:16:44;;;;;;;3.83;1.70;;;;;;;22.97;53.56;100151.81;10417834;28;20068;-61
2023/07/09 23:21:47;;;;;;;3.20;1.52;;;;;;;23.00;53.26;100146.16;10442220;28;20148;-61
2023/07/09 23:26:54;;;;;;;3.20;1.83;;;;;;;22.92;53.95;100154.16;10425616;28;20497;-61